Station Historical Data
Daily Summary for May 19, 2017 Units:  English    Metric   Both
« Previous Day
Next Day »
Daily Weekly Monthly Yearly Custom
  High: Low: Average:
Temperature: 70.3 °F 54.2 °F 57.2 °F
Dew Point: 59.2 °F 44.1 °F 48.1 °F
Humidity: 84% 62% 72%
Wind Speed: 11.0mph 0.0mph 2.8mph
Wind Gust: 13.0mph - -
Wind- - SW
Pressure: 30.20 in 29.79 in -
Precipitation: 0.00 in    
Historical Graphs
 
 
Tabular Data for May 19, 2017
Time Temperature Dew Point Pressure Wind Wind Speed Wind Gust Humidity Rainfall Rate (Hourly)
00:00 70.3 °F 58.8 °F 29.79 in West 4.0 mph 11.0 mph 67% 0.00 in
00:05 70.2 °F 58.7 °F 29.80 in WSW 4.0 mph 11.0 mph 67% 0.00 in
00:10 70.3 °F 59.2 °F 29.80 in SW 5.0 mph 12.0 mph 68% 0.00 in
00:15 69.9 °F 58.9 °F 29.81 in SW 3.0 mph 8.0 mph 68% 0.00 in
00:20 69.2 °F 58.6 °F 29.81 in WSW 4.0 mph 8.0 mph 69% 0.00 in
00:25 68.9 °F 58.7 °F 29.81 in WSW 7.0 mph 7.0 mph 70% 0.00 in
00:35 67.2 °F 57.1 °F 29.81 in SSW 4.0 mph 10.0 mph 70% 0.00 in
00:40 65.6 °F 56.3 °F 29.81 in SSW 2.0 mph 8.0 mph 72% 0.00 in
00:45 64.4 °F 55.9 °F 29.81 in SSW 6.0 mph 10.0 mph 74% 0.00 in
00:50 63.3 °F 55.2 °F 29.82 in SSW 2.0 mph 6.0 mph 75% 0.00 in
00:55 62.3 °F 55.0 °F 29.81 in South 4.0 mph 7.0 mph 77% 0.00 in
01:00 61.8 °F 54.9 °F 29.82 in SSW 4.0 mph 8.0 mph 78% 0.00 in
01:05 61.3 °F 54.4 °F 29.81 in SW 4.0 mph 9.0 mph 78% 0.00 in
01:10 61.1 °F 54.2 °F 29.82 in SW 3.0 mph 9.0 mph 78% 0.00 in
01:15 60.9 °F 54.3 °F 29.82 in West 4.0 mph 8.0 mph 79% 0.00 in
01:20 60.7 °F 54.1 °F 29.82 in SSW 3.0 mph 7.0 mph 79% 0.00 in
01:25 60.6 °F 54.0 °F 29.82 in SW 2.0 mph 6.0 mph 79% 0.00 in
01:30 60.4 °F 53.9 °F 29.83 in SW 3.0 mph 6.0 mph 79% 0.00 in
01:35 60.4 °F 53.9 °F 29.82 in SW 2.0 mph 5.0 mph 79% 0.00 in
01:40 60.3 °F 53.8 °F 29.82 in SW 3.0 mph 4.0 mph 79% 0.00 in
01:45 60.2 °F 53.7 °F 29.82 in Calm   4.0 mph 79% 0.00 in
01:50 60.0 °F 53.8 °F 29.82 in SW 1.0 mph 2.0 mph 80% 0.00 in
01:55 59.9 °F 53.7 °F 29.82 in SW 1.0 mph 3.0 mph 80% 0.00 in
02:00 59.9 °F 53.7 °F 29.82 in SSW 2.0 mph 4.0 mph 80% 0.00 in
02:05 59.8 °F 53.6 °F 29.82 in SSW 2.0 mph 4.0 mph 80% 0.00 in
02:10 59.8 °F 53.6 °F 29.82 in SSW 1.0 mph 3.0 mph 80% 0.00 in
02:15 59.5 °F 53.3 °F 29.83 in SW 1.0 mph 4.0 mph 80% 0.00 in
02:20 59.4 °F 53.2 °F 29.83 in SW 2.0 mph 5.0 mph 80% 0.00 in
02:25 59.2 °F 53.4 °F 29.83 in SW 1.0 mph 3.0 mph 81% 0.00 in
02:30 59.1 °F 53.3 °F 29.83 in SSW 2.0 mph 7.0 mph 81% 0.00 in
02:35 58.8 °F 52.6 °F 29.84 in SSW 1.0 mph 5.0 mph 80% 0.00 in
02:40 58.5 °F 52.7 °F 29.84 in SW 4.0 mph 5.0 mph 81% 0.00 in
02:45 58.2 °F 52.4 °F 29.84 in WSW 2.0 mph 6.0 mph 81% 0.00 in
02:50 58.1 °F 52.3 °F 29.84 in SW 3.0 mph 7.0 mph 81% 0.00 in
02:55 57.9 °F 52.1 °F 29.84 in SW 3.0 mph 8.0 mph 81% 0.00 in
03:00 58.0 °F 52.2 °F 29.84 in SW 4.0 mph 8.0 mph 81% 0.00 in
03:05 57.9 °F 52.1 °F 29.85 in WSW 1.0 mph 5.0 mph 81% 0.00 in
03:10 57.8 °F 52.0 °F 29.85 in SW 2.0 mph 5.0 mph 81% 0.00 in
03:15 57.8 °F 52.0 °F 29.84 in SW 4.0 mph 6.0 mph 81% 0.00 in
03:20 57.8 °F 51.7 °F 29.85 in SW 3.0 mph 6.0 mph 80% 0.00 in
03:25 57.6 °F 51.8 °F 29.85 in WSW 1.0 mph 5.0 mph 81% 0.00 in
03:30 57.5 °F 51.7 °F 29.85 in SSW 2.0 mph 5.0 mph 81% 0.00 in
03:35 57.3 °F 51.5 °F 29.85 in SSW 2.0 mph 5.0 mph 81% 0.00 in
03:40 57.2 °F 51.4 °F 29.85 in WSW 2.0 mph 4.0 mph 81% 0.00 in
03:45 57.1 °F 51.7 °F 29.86 in West 2.0 mph 6.0 mph 82% 0.00 in
03:50 57.0 °F 51.6 °F 29.86 in WSW 3.0 mph 6.0 mph 82% 0.00 in
03:55 56.8 °F 51.4 °F 29.86 in WSW 2.0 mph 4.0 mph 82% 0.00 in
04:00 56.7 °F 51.3 °F 29.86 in WSW 1.0 mph 3.0 mph 82% 0.00 in
04:05 56.5 °F 51.1 °F 29.86 in SW 1.0 mph 3.0 mph 82% 0.00 in
04:10 56.4 °F 51.3 °F 29.86 in Calm   3.0 mph 83% 0.00 in
04:15 56.2 °F 51.1 °F 29.86 in Calm     83% 0.00 in
04:20 55.9 °F 50.8 °F 29.86 in Calm   3.0 mph 83% 0.00 in
04:25 55.7 °F 50.6 °F 29.86 in Calm   3.0 mph 83% 0.00 in
04:30 55.6 °F 50.8 °F 29.87 in Calm     84% 0.00 in
04:35 55.6 °F 50.8 °F 29.88 in Calm     84% 0.00 in
04:40 55.6 °F 50.8 °F 29.88 in Calm     84% 0.00 in
04:45 55.7 °F 50.9 °F 29.88 in Calm     84% 0.00 in
04:50 56.0 °F 51.2 °F 29.89 in Calm     84% 0.00 in
04:55 56.1 °F 51.3 °F 29.89 in Calm   1.0 mph 84% 0.00 in
05:00 56.3 °F 51.5 °F 29.89 in Calm   2.0 mph 84% 0.00 in
05:05 56.5 °F 51.7 °F 29.90 in Calm   2.0 mph 84% 0.00 in
05:10 56.5 °F 51.7 °F 29.90 in Calm     84% 0.00 in
05:15 56.6 °F 51.8 °F 29.90 in Calm     84% 0.00 in
05:20 56.6 °F 51.8 °F 29.91 in Calm     84% 0.00 in
05:25 56.6 °F 51.8 °F 29.91 in Calm     84% 0.00 in
05:30 56.7 °F 51.9 °F 29.91 in Calm     84% 0.00 in
05:35 57.0 °F 52.2 °F 29.91 in Calm     84% 0.00 in
05:40 57.2 °F 52.1 °F 29.91 in Calm     83% 0.00 in
05:45 57.3 °F 52.5 °F 29.91 in Calm     84% 0.00 in
05:50 57.7 °F 52.6 °F 29.92 in Calm     83% 0.00 in
05:55 58.4 °F 53.6 °F 29.92 in WSW 1.0 mph 9.0 mph 84% 0.00 in
06:00 59.5 °F 54.0 °F 29.92 in WSW 2.0 mph 9.0 mph 82% 0.00 in
06:05 60.2 °F 54.3 °F 29.92 in WSW 2.0 mph 8.0 mph 81% 0.00 in
06:10 60.0 °F 53.5 °F 29.92 in SW 2.0 mph 6.0 mph 79% 0.00 in
06:15 59.4 °F 53.2 °F 29.93 in WSW 1.0 mph 4.0 mph 80% 0.00 in
06:20 59.2 °F 53.4 °F 29.93 in SW 1.0 mph 4.0 mph 81% 0.00 in
06:25 58.4 °F 52.6 °F 29.93 in SW 2.0 mph 6.0 mph 81% 0.00 in
06:30 58.0 °F 52.5 °F 29.93 in SSW 3.0 mph 6.0 mph 82% 0.00 in
06:35 57.9 °F 52.8 °F 29.93 in SSW 2.0 mph 6.0 mph 83% 0.00 in
06:40 58.0 °F 52.9 °F 29.94 in SW 1.0 mph 3.0 mph 83% 0.00 in
06:45 58.1 °F 53.0 °F 29.94 in Calm   3.0 mph 83% 0.00 in
06:50 58.2 °F 53.1 °F 29.94 in SW 1.0 mph 3.0 mph 83% 0.00 in
06:55 58.6 °F 53.1 °F 29.94 in West 1.0 mph 3.0 mph 82% 0.00 in
07:00 59.0 °F 52.5 °F 29.94 in WSW 3.0 mph 10.0 mph 79% 0.00 in
07:05 59.1 °F 51.9 °F 29.94 in West 3.0 mph 11.0 mph 77% 0.00 in
07:10 59.0 °F 51.4 °F 29.94 in West 5.0 mph 9.0 mph 76% 0.00 in
07:15 58.8 °F 51.2 °F 29.94 in WNW 8.0 mph 10.0 mph 76% 0.00 in
07:20 58.6 °F 51.1 °F 29.95 in West 5.0 mph 10.0 mph 76% 0.00 in
07:25 58.5 °F 51.0 °F 29.95 in West 5.0 mph 9.0 mph 76% 0.00 in
07:30 58.4 °F 50.5 °F 29.96 in West 5.0 mph 10.0 mph 75% 0.00 in
07:35 58.2 °F 50.7 °F 29.95 in WSW 4.0 mph 12.0 mph 76% 0.00 in
07:40 58.2 °F 50.7 °F 29.96 in West 5.0 mph 9.0 mph 76% 0.00 in
07:45 58.0 °F 50.5 °F 29.96 in SW 1.0 mph 9.0 mph 76% 0.00 in
07:50 57.8 °F 50.3 °F 29.97 in West 5.0 mph 10.0 mph 76% 0.00 in
07:55 57.6 °F 50.1 °F 29.97 in West 5.0 mph 12.0 mph 76% 0.00 in
08:00 57.3 °F 49.8 °F 29.97 in WNW 5.0 mph 12.0 mph 76% 0.00 in
08:05 57.0 °F 49.9 °F 29.98 in West 5.0 mph 9.0 mph 77% 0.00 in
08:10 56.6 °F 49.1 °F 29.98 in WNW 8.0 mph 11.0 mph 76% 0.00 in
08:15 56.2 °F 49.1 °F 29.98 in WNW 6.0 mph 11.0 mph 77% 0.00 in
08:20 56.0 °F 48.9 °F 29.99 in WNW 6.0 mph 10.0 mph 77% 0.00 in
08:25 56.2 °F 49.1 °F 29.99 in WNW 5.0 mph 11.0 mph 77% 0.00 in
08:30 56.3 °F 49.2 °F 29.99 in WNW 4.0 mph 10.0 mph 77% 0.00 in
08:35 56.3 °F 48.8 °F 30.00 in NW 5.0 mph 10.0 mph 76% 0.00 in
08:40 56.4 °F 48.9 °F 30.00 in SW 6.0 mph 8.0 mph 76% 0.00 in
08:45 56.7 °F 49.2 °F 30.00 in West 4.0 mph 8.0 mph 76% 0.00 in
08:50 56.9 °F 49.1 °F 30.00 in West 4.0 mph 9.0 mph 75% 0.00 in
08:55 57.0 °F 48.8 °F 30.00 in WNW 7.0 mph 9.0 mph 74% 0.00 in
09:00 56.9 °F 49.1 °F 30.01 in WNW 3.0 mph 10.0 mph 75% 0.00 in
09:05 57.1 °F 48.9 °F 30.01 in West 2.0 mph 7.0 mph 74% 0.00 in
09:10 56.8 °F 48.2 °F 30.01 in West 7.0 mph 12.0 mph 73% 0.00 in
09:15 56.5 °F 47.9 °F 30.01 in West 4.0 mph 12.0 mph 73% 0.00 in
09:20 56.1 °F 47.9 °F 30.01 in WNW 4.0 mph 9.0 mph 74% 0.00 in
09:25 56.1 °F 47.9 °F 30.01 in WNW 4.0 mph 9.0 mph 74% 0.00 in
09:30 56.0 °F 47.5 °F 30.01 in NW 3.0 mph 10.0 mph 73% 0.00 in
09:35 56.3 °F 48.1 °F 30.02 in WNW 4.0 mph 10.0 mph 74% 0.00 in
09:40 56.7 °F 48.1 °F 30.02 in West 4.0 mph 7.0 mph 73% 0.00 in
09:45 56.3 °F 47.4 °F 30.02 in NW 2.0 mph 8.0 mph 72% 0.00 in
09:50 55.7 °F 47.2 °F 30.02 in NW 5.0 mph 9.0 mph 73% 0.00 in
09:55 56.0 °F 47.5 °F 30.02 in West 4.0 mph 8.0 mph 73% 0.00 in
10:00 56.2 °F 47.7 °F 30.02 in NW 6.0 mph 8.0 mph 73% 0.00 in
10:05 56.6 °F 47.7 °F 30.02 in NNW 2.0 mph 9.0 mph 72% 0.00 in
10:10 56.7 °F 47.4 °F 30.02 in NW 6.0 mph 8.0 mph 71% 0.00 in
10:15 56.6 °F 46.9 °F 30.02 in NNW 4.0 mph 9.0 mph 70% 0.00 in
10:20 56.4 °F 47.1 °F 30.03 in NW 5.0 mph 9.0 mph 71% 0.00 in
10:25 55.5 °F 46.6 °F 30.03 in NNW 4.0 mph 9.0 mph 72% 0.00 in
10:30 55.4 °F 46.9 °F 30.03 in NNW 4.0 mph 9.0 mph 73% 0.00 in
10:35 55.7 °F 47.2 °F 30.04 in NW 4.0 mph 9.0 mph 73% 0.00 in
10:40 55.7 °F 46.8 °F 30.04 in NW 4.0 mph 9.0 mph 72% 0.00 in
10:45 56.5 °F 47.2 °F 30.04 in NW 4.0 mph 12.0 mph 71% 0.00 in
10:50 58.0 °F 48.6 °F 30.04 in NNW 11.0 mph 11.0 mph 71% 0.00 in
10:55 56.7 °F 47.0 °F 30.05 in NW 10.0 mph 11.0 mph 70% 0.00 in
11:00 56.4 °F 46.4 °F 30.05 in NW 5.0 mph 10.0 mph 69% 0.00 in
11:05 57.5 °F 48.9 °F 30.05 in NNW 3.0 mph 8.0 mph 73% 0.00 in
11:10 57.0 °F 46.1 °F 30.05 in NW 4.0 mph 8.0 mph 67% 0.00 in
11:15 56.3 °F 45.9 °F 30.05 in NNW 3.0 mph 8.0 mph 68% 0.00 in
11:20 56.1 °F 46.8 °F 30.06 in NNW 3.0 mph 8.0 mph 71% 0.00 in
11:25 56.3 °F 46.6 °F 30.06 in NNW 3.0 mph 10.0 mph 70% 0.00 in
11:30 55.8 °F 45.8 °F 30.06 in NNW 2.0 mph 7.0 mph 69% 0.00 in
11:35 56.0 °F 46.0 °F 30.06 in WNW 3.0 mph 8.0 mph 69% 0.00 in
11:40 57.1 °F 47.0 °F 30.06 in North 4.0 mph 10.0 mph 69% 0.00 in
11:45 57.2 °F 46.7 °F 30.06 in NW 3.0 mph 10.0 mph 68% 0.00 in
11:50 56.4 °F 45.2 °F 30.07 in NW 4.0 mph 13.0 mph 66% 0.00 in
11:55 56.7 °F 45.5 °F 30.06 in NW 4.0 mph 13.0 mph 66% 0.00 in
12:00 57.1 °F 47.0 °F 30.06 in North 2.0 mph 11.0 mph 69% 0.00 in
12:05 57.1 °F 46.2 °F 30.06 in NNW 4.0 mph 10.0 mph 67% 0.00 in
12:10 57.1 °F 45.4 °F 30.07 in North 2.0 mph 7.0 mph 65% 0.00 in
12:15 57.5 °F 46.2 °F 30.07 in NNW 3.0 mph 8.0 mph 66% 0.00 in
12:20 57.3 °F 46.4 °F 30.07 in NNW 3.0 mph 8.0 mph 67% 0.00 in
12:25 57.0 °F 45.7 °F 30.07 in NW 3.0 mph 8.0 mph 66% 0.00 in
12:30 57.3 °F 46.4 °F 30.07 in North 3.0 mph 8.0 mph 67% 0.00 in
12:35 57.4 °F 46.1 °F 30.08 in NNE 5.0 mph 10.0 mph 66% 0.00 in
12:40 57.3 °F 45.6 °F 30.08 in NW 5.0 mph 10.0 mph 65% 0.00 in
12:45 58.0 °F 46.7 °F 30.08 in NW 5.0 mph 10.0 mph 66% 0.00 in
12:50 58.6 °F 47.3 °F 30.09 in WNW 4.0 mph 9.0 mph 66% 0.00 in
12:55 58.2 °F 46.1 °F 30.08 in WNW 4.0 mph 8.0 mph 64% 0.00 in
13:00 57.4 °F 44.9 °F 30.08 in NW 4.0 mph 9.0 mph 63% 0.00 in
13:05 57.5 °F 45.0 °F 30.08 in WNW 2.0 mph 10.0 mph 63% 0.00 in
13:10 57.4 °F 44.9 °F 30.09 in NW 4.0 mph 10.0 mph 63% 0.00 in
13:15 57.4 °F 45.7 °F 30.09 in West 5.0 mph 9.0 mph 65% 0.00 in
13:20 57.6 °F 45.1 °F 30.09 in NNW 6.0 mph 11.0 mph 63% 0.00 in
13:25 57.1 °F 45.4 °F 30.09 in West 8.0 mph 11.0 mph 65% 0.00 in
13:30 56.6 °F 44.6 °F 30.09 in WSW 4.0 mph 8.0 mph 64% 0.00 in
13:35 56.7 °F 44.7 °F 30.09 in NW 4.0 mph 8.0 mph 64% 0.00 in
13:40 56.9 °F 44.8 °F 30.09 in NW 3.0 mph 8.0 mph 64% 0.00 in
13:45 57.6 °F 45.9 °F 30.09 in NW 3.0 mph 6.0 mph 65% 0.00 in
13:50 57.3 °F 45.2 °F 30.09 in NW 2.0 mph 6.0 mph 64% 0.00 in
13:55 56.6 °F 45.0 °F 30.09 in Calm   8.0 mph 65% 0.00 in
14:00 57.0 °F 45.7 °F 30.09 in NW 3.0 mph 7.0 mph 66% 0.00 in
14:05 56.8 °F 44.7 °F 30.09 in NW 3.0 mph 8.0 mph 64% 0.00 in
14:10 56.9 °F 45.7 °F 30.08 in NW 4.0 mph 8.0 mph 66% 0.00 in
14:15 57.0 °F 44.5 °F 30.08 in NNW 3.0 mph 6.0 mph 63% 0.00 in
14:20 56.5 °F 45.3 °F 30.09 in North 3.0 mph 7.0 mph 66% 0.00 in
14:25 56.6 °F 44.6 °F 30.09 in NNW 3.0 mph 7.0 mph 64% 0.00 in
14:30 56.9 °F 45.3 °F 30.09 in West 7.0 mph 8.0 mph 65% 0.00 in
14:35 57.2 °F 45.1 °F 30.09 in NW 4.0 mph 9.0 mph 64% 0.00 in
14:40 58.0 °F 45.9 °F 30.09 in WNW 5.0 mph 10.0 mph 64% 0.00 in
14:45 57.7 °F 44.8 °F 30.10 in NNW 3.0 mph 8.0 mph 62% 0.00 in
14:50 57.3 °F 45.6 °F 30.10 in NNW 4.0 mph 10.0 mph 65% 0.00 in
14:55 57.1 °F 45.4 °F 30.10 in WNW 3.0 mph 8.0 mph 65% 0.00 in
15:00 56.7 °F 44.7 °F 30.10 in West 4.0 mph 11.0 mph 64% 0.00 in
15:05 56.5 °F 44.5 °F 30.10 in NW 5.0 mph 11.0 mph 64% 0.00 in
15:10 57.2 °F 45.1 °F 30.11 in NW 5.0 mph 9.0 mph 64% 0.00 in
15:15 57.1 °F 45.0 °F 30.11 in WNW 4.0 mph 11.0 mph 64% 0.00 in
15:20 56.6 °F 44.1 °F 30.11 in WNW 5.0 mph 11.0 mph 63% 0.00 in
15:25 56.8 °F 44.7 °F 30.11 in WNW 4.0 mph 10.0 mph 64% 0.00 in
15:30 57.0 °F 44.9 °F 30.11 in WNW 4.0 mph 9.0 mph 64% 0.00 in
15:35 57.3 °F 45.2 °F 30.12 in WNW 4.0 mph 8.0 mph 64% 0.00 in
15:40 57.0 °F 44.5 °F 30.12 in NW 2.0 mph 7.0 mph 63% 0.00 in
15:45 57.3 °F 44.8 °F 30.12 in WNW 3.0 mph 8.0 mph 63% 0.00 in
15:50 56.8 °F 44.7 °F 30.12 in NW 8.0 mph 11.0 mph 64% 0.00 in
15:55 57.0 °F 45.7 °F 30.11 in West 3.0 mph 10.0 mph 66% 0.00 in
16:00 57.6 °F 45.5 °F 30.11 in West 5.0 mph 10.0 mph 64% 0.00 in
16:05 57.2 °F 45.1 °F 30.12 in West 4.0 mph 8.0 mph 64% 0.00 in
16:10 57.0 °F 44.9 °F 30.12 in NW 3.0 mph 7.0 mph 64% 0.00 in
16:15 56.2 °F 44.2 °F 30.12 in NNW 2.0 mph 6.0 mph 64% 0.00 in
16:20 56.4 °F 46.0 °F 30.11 in North 1.0 mph 6.0 mph 68% 0.00 in
16:25 56.5 °F 44.9 °F 30.12 in North 1.0 mph 5.0 mph 65% 0.00 in
16:30 56.8 °F 45.6 °F 30.12 in NNW 2.0 mph 6.0 mph 66% 0.00 in
16:35 56.9 °F 44.8 °F 30.11 in NNW 3.0 mph 6.0 mph 64% 0.00 in
16:40 56.6 °F 45.0 °F 30.11 in NNW 2.0 mph 7.0 mph 65% 0.00 in
16:45 56.5 °F 45.3 °F 30.11 in North 2.0 mph 7.0 mph 66% 0.00 in
16:50 56.2 °F 45.0 °F 30.11 in NNW 1.0 mph 5.0 mph 66% 0.00 in
16:55 56.6 °F 45.8 °F 30.11 in North 2.0 mph 3.0 mph 67% 0.00 in
17:00 57.4 °F 45.7 °F 30.10 in North 1.0 mph 3.0 mph 65% 0.00 in
17:05 58.1 °F 46.0 °F 30.11 in North 3.0 mph 6.0 mph 64% 0.00 in
17:10 58.2 °F 47.3 °F 30.11 in NNE 3.0 mph 5.0 mph 67% 0.00 in
17:15 58.1 °F 46.0 °F 30.11 in NE 2.0 mph 5.0 mph 64% 0.00 in
17:20 57.8 °F 46.1 °F 30.11 in NNE 3.0 mph 5.0 mph 65% 0.00 in
17:25 57.5 °F 45.4 °F 30.10 in North 2.0 mph 7.0 mph 64% 0.00 in
17:30 57.3 °F 45.6 °F 30.10 in NNW 3.0 mph 7.0 mph 65% 0.00 in
17:35 56.8 °F 45.6 °F 30.11 in NNW 3.0 mph 8.0 mph 66% 0.00 in
17:40 56.8 °F 45.6 °F 30.11 in North 3.0 mph 8.0 mph 66% 0.00 in
17:45 56.5 °F 45.3 °F 30.11 in North 3.0 mph 8.0 mph 66% 0.00 in
17:50 56.4 °F 45.2 °F 30.11 in North 3.0 mph 8.0 mph 66% 0.00 in
17:55 56.3 °F 45.5 °F 30.10 in North 3.0 mph 8.0 mph 67% 0.00 in
18:00 56.4 °F 45.6 °F 30.10 in NNE 3.0 mph 5.0 mph 67% 0.00 in
18:05 56.2 °F 45.4 °F 30.11 in North 2.0 mph 8.0 mph 67% 0.00 in
18:10 56.3 °F 45.5 °F 30.10 in NNW 4.0 mph 7.0 mph 67% 0.00 in
18:15 56.2 °F 45.4 °F 30.11 in North 2.0 mph 8.0 mph 67% 0.00 in
18:20 56.3 °F 45.5 °F 30.11 in North 3.0 mph 4.0 mph 67% 0.00 in
18:25 56.1 °F 44.9 °F 30.11 in NNW 3.0 mph 8.0 mph 66% 0.00 in
18:30 56.2 °F 45.0 °F 30.12 in NNW 3.0 mph 8.0 mph 66% 0.00 in
18:35 56.9 °F 46.1 °F 30.12 in North 2.0 mph 7.0 mph 67% 0.00 in
18:40 56.5 °F 45.3 °F 30.12 in NNW 1.0 mph 5.0 mph 66% 0.00 in
18:45 56.1 °F 44.1 °F 30.12 in NW 1.0 mph 4.0 mph 64% 0.00 in
18:50 56.4 °F 45.2 °F 30.11 in ENE 3.0 mph 5.0 mph 66% 0.00 in
18:55 56.5 °F 45.3 °F 30.11 in ENE 2.0 mph 7.0 mph 66% 0.00 in
19:00 56.7 °F 44.7 °F 30.11 in NE 3.0 mph 8.0 mph 64% 0.00 in
19:05 56.4 °F 44.8 °F 30.11 in NE 3.0 mph 6.0 mph 65% 0.00 in
19:10 56.3 °F 44.7 °F 30.12 in NE 5.0 mph 9.0 mph 65% 0.00 in
19:15 56.2 °F 44.6 °F 30.12 in East 2.0 mph 7.0 mph 65% 0.00 in
19:20 55.9 °F 44.7 °F 30.12 in NE 2.0 mph 8.0 mph 66% 0.00 in
19:25 55.6 °F 44.8 °F 30.12 in NE 2.0 mph 8.0 mph 67% 0.00 in
19:30 55.6 °F 44.8 °F 30.13 in NE 1.0 mph 5.0 mph 67% 0.00 in
19:35 55.7 °F 44.9 °F 30.12 in NE 3.0 mph 7.0 mph 67% 0.00 in
19:40 55.7 °F 44.9 °F 30.12 in NE 3.0 mph 8.0 mph 67% 0.00 in
19:45 55.8 °F 45.0 °F 30.12 in NNE 2.0 mph 9.0 mph 67% 0.00 in
19:50 55.8 °F 44.6 °F 30.13 in NE 4.0 mph 8.0 mph 66% 0.00 in
19:55 55.9 °F 45.1 °F 30.14 in NE 3.0 mph 8.0 mph 67% 0.00 in
20:00 55.8 °F 45.0 °F 30.13 in NE 3.0 mph 8.0 mph 67% 0.00 in
20:05 55.7 °F 44.9 °F 30.14 in NE 2.0 mph 5.0 mph 67% 0.00 in
20:10 55.7 °F 44.9 °F 30.14 in NE 2.0 mph 7.0 mph 67% 0.00 in
20:15 55.7 °F 45.3 °F 30.14 in NE 2.0 mph 5.0 mph 68% 0.00 in
20:20 55.6 °F 44.8 °F 30.15 in NE 2.0 mph 4.0 mph 67% 0.00 in
20:25 55.5 °F 45.1 °F 30.15 in NE 1.0 mph 4.0 mph 68% 0.00 in
20:30 55.4 °F 45.0 °F 30.15 in NNE 2.0 mph 5.0 mph 68% 0.00 in
20:35 55.5 °F 45.1 °F 30.15 in NE 2.0 mph 7.0 mph 68% 0.00 in
20:40 55.4 °F 45.0 °F 30.14 in NE 4.0 mph 8.0 mph 68% 0.00 in
20:45 55.3 °F 44.9 °F 30.14 in NE 5.0 mph 8.0 mph 68% 0.00 in
20:50 55.3 °F 44.9 °F 30.14 in ENE 3.0 mph 5.0 mph 68% 0.00 in
20:55 55.2 °F 45.2 °F 30.15 in NNE 1.0 mph 5.0 mph 69% 0.00 in
21:00 55.1 °F 45.1 °F 30.15 in NNE 2.0 mph 5.0 mph 69% 0.00 in
21:05 55.0 °F 45.0 °F 30.15 in North 2.0 mph 4.0 mph 69% 0.00 in
21:10 54.9 °F 44.9 °F 30.15 in NNE 2.0 mph 5.0 mph 69% 0.00 in
21:15 55.0 °F 45.4 °F 30.15 in NE 3.0 mph 6.0 mph 70% 0.00 in
21:20 54.9 °F 44.9 °F 30.15 in NE 4.0 mph 9.0 mph 69% 0.00 in
21:25 54.8 °F 44.8 °F 30.16 in NE 3.0 mph 9.0 mph 69% 0.00 in
21:30 54.7 °F 44.7 °F 30.17 in NE 1.0 mph 3.0 mph 69% 0.00 in
21:35 54.7 °F 45.1 °F 30.17 in Calm   4.0 mph 70% 0.00 in
21:40 54.7 °F 44.7 °F 30.17 in ENE 2.0 mph 5.0 mph 69% 0.00 in
21:45 54.6 °F 44.6 °F 30.17 in NE 2.0 mph 4.0 mph 69% 0.00 in
21:50 54.7 °F 44.7 °F 30.17 in Calm   4.0 mph 69% 0.00 in
21:55 54.7 °F 44.7 °F 30.18 in ENE 1.0 mph 4.0 mph 69% 0.00 in
22:00 54.7 °F 45.1 °F 30.18 in Calm   3.0 mph 70% 0.00 in
22:05 54.6 °F 44.6 °F 30.18 in NE 1.0 mph 5.0 mph 69% 0.00 in
22:10 54.7 °F 44.7 °F 30.18 in ENE 2.0 mph 5.0 mph 69% 0.00 in
22:15 54.7 °F 44.7 °F 30.18 in ENE 2.0 mph 7.0 mph 69% 0.00 in
22:20 54.6 °F 44.6 °F 30.19 in ENE 2.0 mph 7.0 mph 69% 0.00 in
22:25 54.5 °F 44.9 °F 30.19 in NE 2.0 mph 4.0 mph 70% 0.00 in
22:30 54.6 °F 44.6 °F 30.18 in ENE 2.0 mph 6.0 mph 69% 0.00 in
22:35 54.6 °F 44.6 °F 30.19 in ENE 3.0 mph 7.0 mph 69% 0.00 in
22:40 54.6 °F 44.6 °F 30.19 in NE 2.0 mph 6.0 mph 69% 0.00 in
22:45 54.5 °F 44.5 °F 30.19 in NE 1.0 mph 5.0 mph 69% 0.00 in
22:50 54.5 °F 44.9 °F 30.20 in NE 1.0 mph 2.0 mph 70% 0.00 in
22:55 54.4 °F 44.8 °F 30.20 in Calm   3.0 mph 70% 0.00 in
23:00 54.4 °F 44.8 °F 30.20 in NE 1.0 mph 3.0 mph 70% 0.00 in
23:05 54.4 °F 44.8 °F 30.19 in NE 1.0 mph 4.0 mph 70% 0.00 in
23:10 54.4 °F 44.8 °F 30.19 in NE 1.0 mph 4.0 mph 70% 0.00 in
23:15 54.4 °F 44.8 °F 30.19 in NE 2.0 mph 5.0 mph 70% 0.00 in
23:20 54.4 °F 44.8 °F 30.19 in NE 2.0 mph 5.0 mph 70% 0.00 in
23:25 54.3 °F 44.7 °F 30.19 in Calm   3.0 mph 70% 0.00 in
23:30 54.3 °F 45.1 °F 30.19 in NE 2.0 mph 4.0 mph 71% 0.00 in
23:35 54.3 °F 45.1 °F 30.19 in NE 1.0 mph 3.0 mph 71% 0.00 in
23:40 54.3 °F 45.1 °F 30.20 in Calm   3.0 mph 71% 0.00 in
23:45 54.3 °F 44.7 °F 30.19 in Calm   3.0 mph 70% 0.00 in
23:50 54.3 °F 45.1 °F 30.20 in NE 1.0 mph 5.0 mph 71% 0.00 in
23:55 54.2 °F 44.6 °F 30.20 in NE 1.0 mph 5.0 mph 70% 0.00 in
Buffalo, New York, USA
Compliments of Weather Underground - 2.5 mb